Time;durP1;ratioP1;P1;durP2;ratioP2;P2;SDS_P1;SDS_P2;PMS_P1;PMS_P2;Temp;Humidity;BMP_temperature;BMP_pressure;BME280_temperature;BME280_humidity;BME280_pressure;Samples;Min_cycle;Max_cycle;Signal;HPM_P1;HPM_P2
2022/10/09 00:01:58;;;;;;;11.02;4.38;;;;;;;;;;7371916;19;20375;-75
2022/10/09 00:04:23;;;;;;;10.60;4.35;;;;;;;;;;7361294;19;20010;-75
2022/10/09 00:06:48;;;;;;;11.05;4.30;;;;;;;;;;7371463;19;20509;-73
2022/10/09 00:09:13;;;;;;;12.02;4.65;;;;;;;;;;7363233;19;20007;-73
2022/10/09 00:11:38;;;;;;;11.25;4.25;;;;;;;;;;7365250;19;20194;-73
2022/10/09 00:14:04;;;;;;;12.05;4.55;;;;;;;;;;7373739;19;20455;-73
2022/10/09 00:16:29;;;;;;;12.43;4.63;;;;;;;;;;7328655;19;20038;-73
2022/10/09 00:18:54;;;;;;;16.42;4.88;;;;;;;;;;7370979;19;20545;-73
2022/10/09 00:21:24;;;;;;;12.32;4.10;;;;;;;;;;7371884;19;20046;-74
2022/10/09 00:23:49;;;;;;;11.82;4.40;;;;;;;;;;7366083;19;20066;-73
2022/10/09 00:26:15;;;;;;;11.50;4.00;;;;;;;;;;7362329;19;20107;-72
2022/10/09 00:28:40;;;;;;;10.32;3.75;;;;;;;;;;7368283;19;19999;-72
2022/10/09 00:31:06;;;;;;;10.98;3.40;;;;;;;;;;7369300;19;20018;-74
2022/10/09 00:33:32;;;;;;;12.52;3.78;;;;;;;;;;7366532;19;20705;-73
2022/10/09 00:35:57;;;;;;;9.85;3.13;;;;;;;;;;7373814;19;20031;-73
2022/10/09 00:38:23;;;;;;;10.88;3.78;;;;;;;;;;7372735;19;20006;-73
2022/10/09 00:40:48;;;;;;;11.48;3.90;;;;;;;;;;7359275;19;20316;-72
2022/10/09 00:43:36;;;;;;;9.45;3.45;;;;;;;;;;7371450;19;20034;-74
2022/10/09 00:46:01;;;;;;;12.90;3.78;;;;;;;;;;7365493;19;20018;-73
2022/10/09 00:48:26;;;;;;;10.63;3.35;;;;;;;;;;7367943;19;19999;-73
2022/10/09 00:50:54;;;;;;;11.10;4.05;;;;;;;;;;7375456;19;20100;-74
2022/10/09 00:53:21;;;;;;;6.65;3.25;;;;;;;;;;7370210;19;20040;-73
2022/10/09 00:55:47;;;;;;;10.80;4.20;;;;;;;;;;7371046;19;20470;-73
2022/10/09 00:58:12;;;;;;;12.60;4.50;;;;;;;;;;7372706;19;20459;-74
2022/10/09 01:00:38;;;;;;;14.32;3.58;;;;;;;;;;7372746;19;20010;-72
2022/10/09 01:03:03;;;;;;;9.25;3.25;;;;;;;;;;7364805;19;20006;-73
2022/10/09 01:05:34;;;;;;;10.60;2.80;;;;;;;;;;7371726;19;20015;-72
2022/10/09 01:08:06;;;;;;;11.18;3.28;;;;;;;;;;7368145;19;20018;-74
2022/10/09 01:10:34;;;;;;;7.10;2.40;;;;;;;;;;7358883;19;20014;-74
2022/10/09 01:13:26;;;;;;;10.02;2.92;;;;;;;;;;7376063;19;20031;-72
2022/10/09 01:15:57;;;;;;;10.63;3.15;;;;;;;;;;7369214;19;20017;-73
2022/10/09 01:18:45;;;;;;;6.57;2.60;;;;;;;;;;7368298;19;19994;-73
2022/10/09 01:21:13;;;;;;;13.52;3.10;;;;;;;;;;7370724;19;20511;-73
2022/10/09 01:23:38;;;;;;;10.07;2.42;;;;;;;;;;7373848;19;20464;-72
2022/10/09 01:26:08;;;;;;;12.13;3.13;;;;;;;;;;7365667;19;20066;-74
2022/10/09 01:28:34;;;;;;;9.27;2.90;;;;;;;;;;7373664;19;20548;-73
2022/10/09 01:31:01;;;;;;;9.55;3.03;;;;;;;;;;7342110;19;20033;-76
2022/10/09 01:33:27;;;;;;;9.43;3.15;;;;;;;;;;7364213;19;20041;-73
2022/10/09 01:35:52;;;;;;;9.80;3.05;;;;;;;;;;7372756;19;20565;-73
2022/10/09 01:38:19;;;;;;;9.63;2.80;;;;;;;;;;7369176;19;20018;-73
2022/10/09 01:40:44;;;;;;;10.75;2.72;;;;;;;;;;7368986;19;20573;-73
2022/10/09 01:43:10;;;;;;;9.00;3.08;;;;;;;;;;7367855;19;20029;-72
2022/10/09 01:45:39;;;;;;;17.30;3.63;;;;;;;;;;7364168;19;20620;-75
2022/10/09 01:48:05;;;;;;;13.55;2.80;;;;;;;;;;7371011;19;20366;-73
2022/10/09 01:50:33;;;;;;;8.80;3.15;;;;;;;;;;7374751;19;20002;-74
2022/10/09 01:53:04;;;;;;;10.82;2.97;;;;;;;;;;7379509;19;20033;-73
2022/10/09 01:55:33;;;;;;;8.10;2.75;;;;;;;;;;7378402;19;20007;-73
2022/10/09 01:58:01;;;;;;;8.27;3.05;;;;;;;;;;7371005;19;20404;-74
2022/10/09 02:00:29;;;;;;;8.18;2.47;;;;;;;;;;7377281;19;20517;-73
2022/10/09 02:02:55;;;;;;;7.15;2.90;;;;;;;;;;7369541;19;20011;-74
2022/10/09 02:05:26;;;;;;;9.65;3.38;;;;;;;;;;7359773;19;20019;-73
2022/10/09 02:07:52;;;;;;;8.73;3.10;;;;;;;;;;7378293;19;20078;-72
2022/10/09 02:10:18;;;;;;;9.60;2.83;;;;;;;;;;7381321;19;20469;-73
2022/10/09 02:12:49;;;;;;;10.98;2.85;;;;;;;;;;7372813;19;20015;-72
2022/10/09 02:15:15;;;;;;;11.27;2.92;;;;;;;;;;7370026;19;20351;-74
2022/10/09 02:17:43;;;;;;;10.60;3.05;;;;;;;;;;7379587;19;20003;-73
2022/10/09 02:20:11;;;;;;;13.55;2.88;;;;;;;;;;7374176;19;20041;-74
2022/10/09 02:22:36;;;;;;;8.02;3.13;;;;;;;;;;7377390;19;20006;-73
2022/10/09 02:25:03;;;;;;;9.75;3.17;;;;;;;;;;7371363;19;20048;-74
2022/10/09 02:27:29;;;;;;;9.38;2.80;;;;;;;;;;7374591;19;20029;-74
2022/10/09 02:29:54;;;;;;;10.30;3.17;;;;;;;;;;7344489;19;20006;-73
2022/10/09 02:32:19;;;;;;;13.55;3.55;;;;;;;;;;7373777;19;20510;-73
2022/10/09 02:34:45;;;;;;;11.40;3.70;;;;;;;;;;7376994;19;20010;-72
2022/10/09 02:37:10;;;;;;;12.98;3.35;;;;;;;;;;7367637;19;20420;-73
2022/10/09 02:39:35;;;;;;;12.85;4.00;;;;;;;;;;7375499;19;20014;-73
2022/10/09 02:42:01;;;;;;;8.00;3.13;;;;;;;;;;7378988;19;20338;-72
2022/10/09 02:44:26;;;;;;;10.23;3.88;;;;;;;;;;7369595;19;20469;-74
2022/10/09 02:46:52;;;;;;;10.88;3.88;;;;;;;;;;7376499;19;20335;-73
2022/10/09 02:49:17;;;;;;;10.68;3.67;;;;;;;;;;7379540;19;20382;-73
2022/10/09 02:51:42;;;;;;;8.63;3.25;;;;;;;;;;7379444;19;20010;-72
2022/10/09 02:54:07;;;;;;;9.83;3.50;;;;;;;;;;7362682;19;20366;-73
2022/10/09 02:56:33;;;;;;;11.25;3.88;;;;;;;;;;7374156;19;20239;-74
2022/10/09 02:58:58;;;;;;;12.50;3.55;;;;;;;;;;7379170;19;20055;-73
2022/10/09 03:01:23;;;;;;;9.70;3.40;;;;;;;;;;7370732;19;20031;-72
2022/10/09 03:03:49;;;;;;;12.63;3.85;;;;;;;;;;7377448;19;20011;-73
2022/10/09 03:06:15;;;;;;;8.98;3.38;;;;;;;;;;7374059;19;20023;-73
2022/10/09 03:08:42;;;;;;;10.90;3.38;;;;;;;;;;7367414;19;20728;-73
2022/10/09 03:11:08;;;;;;;12.07;4.50;;;;;;;;;;7375043;19;20682;-72
2022/10/09 03:13:34;;;;;;;9.43;3.42;;;;;;;;;;7376377;19;20352;-73
2022/10/09 03:16:03;;;;;;;10.75;4.35;;;;;;;;;;7367346;19;20006;-74
2022/10/09 03:18:29;;;;;;;9.88;3.88;;;;;;;;;;7378485;19;20018;-72
2022/10/09 03:20:54;;;;;;;11.63;4.82;;;;;;;;;;7378996;19;20048;-73
2022/10/09 03:23:19;;;;;;;16.53;4.70;;;;;;;;;;7373991;19;19994;-75
2022/10/09 03:25:53;;;;;;;12.18;3.92;;;;;;;;;;7362005;19;20798;-76
2022/10/09 03:28:18;;;;;;;;;;;;;;;;;;7358950;19;20535;-75
2022/10/09 03:30:43;;;;;;;9.73;3.63;;;;;;;;;;7370162;19;19923;-76
2022/10/09 03:33:08;;;;;;;9.93;3.58;;;;;;;;;;7365177;19;20228;-72
2022/10/09 03:35:34;;;;;;;10.52;3.63;;;;;;;;;;7373049;19;20015;-73
2022/10/09 03:37:59;;;;;;;13.32;3.70;;;;;;;;;;7376611;19;20031;-73
2022/10/09 03:40:24;;;;;;;10.07;3.72;;;;;;;;;;7372552;19;20009;-73
2022/10/09 03:42:49;;;;;;;12.27;3.63;;;;;;;;;;7371112;19;20022;-73
2022/10/09 03:45:14;;;;;;;9.98;4.07;;;;;;;;;;7370162;19;20010;-73
2022/10/09 03:47:40;;;;;;;11.25;3.70;;;;;;;;;;7366910;19;20007;-73
2022/10/09 03:50:05;;;;;;;12.57;3.72;;;;;;;;;;7369095;19;20034;-73
2022/10/09 03:52:30;;;;;;;9.38;3.70;;;;;;;;;;7372119;19;20015;-73
2022/10/09 03:54:55;;;;;;;14.37;3.67;;;;;;;;;;7374256;19;20601;-73
2022/10/09 03:57:21;;;;;;;8.73;3.22;;;;;;;;;;7360739;19;20231;-74
2022/10/09 03:59:46;;;;;;;11.37;4.37;;;;;;;;;;7370420;19;20395;-74
2022/10/09 04:02:11;;;;;;;12.98;4.05;;;;;;;;;;7371391;19;20271;-73
2022/10/09 04:04:36;;;;;;;12.88;3.83;;;;;;;;;;7370454;19;20007;-72
2022/10/09 04:07:01;;;;;;;13.30;4.45;;;;;;;;;;7372202;19;20015;-73
2022/10/09 04:09:26;;;;;;;10.23;4.50;;;;;;;;;;7368948;19;20874;-72
2022/10/09 04:11:52;;;;;;;10.50;4.32;;;;;;;;;;7358657;19;20259;-73
2022/10/09 04:14:17;;;;;;;16.48;5.80;;;;;;;;;;7371445;19;20524;-73
2022/10/09 04:16:42;;;;;;;16.83;5.13;;;;;;;;;;7365714;19;20127;-73
2022/10/09 04:19:07;;;;;;;11.35;4.55;;;;;;;;;;7375286;19;20005;-73
2022/10/09 04:21:32;;;;;;;14.45;4.85;;;;;;;;;;7364756;19;20018;-72
2022/10/09 04:23:58;;;;;;;15.10;5.00;;;;;;;;;;7373380;19;20003;-73
2022/10/09 04:26:23;;;;;;;17.63;5.43;;;;;;;;;;7368730;19;20255;-74
2022/10/09 04:28:48;;;;;;;10.98;5.47;;;;;;;;;;7364839;19;20009;-72
2022/10/09 04:31:14;;;;;;;16.63;5.30;;;;;;;;;;7339063;19;20383;-73
2022/10/09 04:33:39;;;;;;;12.63;5.00;;;;;;;;;;7374285;19;20474;-73
2022/10/09 04:36:04;;;;;;;11.50;4.87;;;;;;;;;;7364310;19;20255;-73
2022/10/09 04:38:29;;;;;;;9.40;4.70;;;;;;;;;;7372012;19;20231;-73
2022/10/09 04:40:59;;;;;;;15.48;5.13;;;;;;;;;;7375729;19;20085;-73
2022/10/09 04:43:24;;;;;;;15.05;4.78;;;;;;;;;;7375640;19;20046;-73
2022/10/09 04:45:49;;;;;;;11.73;4.93;;;;;;;;;;7362361;19;20006;-72
2022/10/09 04:48:14;;;;;;;13.45;4.85;;;;;;;;;;7375101;19;20316;-74
2022/10/09 04:50:39;;;;;;;12.27;4.43;;;;;;;;;;7372108;19;20264;-72
2022/10/09 04:53:04;;;;;;;12.52;4.55;;;;;;;;;;7346404;19;20015;-73
2022/10/09 04:55:30;;;;;;;14.80;4.80;;;;;;;;;;7371267;19;20014;-72
2022/10/09 04:57:55;;;;;;;10.60;4.32;;;;;;;;;;7371753;19;20028;-73
2022/10/09 05:00:20;;;;;;;15.80;5.30;;;;;;;;;;7362038;19;20066;-73
2022/10/09 05:02:45;;;;;;;15.95;6.40;;;;;;;;;;7374132;19;20020;-73
2022/10/09 05:05:10;;;;;;;14.15;6.55;;;;;;;;;;7367282;19;20462;-73
2022/10/09 05:07:37;;;;;;;17.42;6.22;;;;;;;;;;7363428;19;20007;-74
2022/10/09 05:10:02;;;;;;;11.02;5.20;;;;;;;;;;7372687;19;20030;-72
2022/10/09 05:12:27;;;;;;;12.80;4.30;;;;;;;;;;7374659;19;20485;-72
2022/10/09 05:14:52;;;;;;;12.43;5.00;;;;;;;;;;7368017;19;20010;-73
2022/10/09 05:17:18;;;;;;;14.83;6.40;;;;;;;;;;7373231;19;20005;-73
2022/10/09 05:19:44;;;;;;;16.00;8.18;;;;;;;;;;7376922;19;20235;-73
2022/10/09 05:22:09;;;;;;;15.93;7.70;;;;;;;;;;7375465;19;20015;-73
2022/10/09 05:24:34;;;;;;;21.92;8.20;;;;;;;;;;7362397;19;20470;-72
2022/10/09 05:26:59;;;;;;;19.13;9.60;;;;;;;;;;7378744;19;20036;-72
2022/10/09 05:29:25;;;;;;;20.08;9.20;;;;;;;;;;7374067;19;20090;-73
2022/10/09 05:31:50;;;;;;;19.73;9.07;;;;;;;;;;7378432;19;20003;-72
2022/10/09 05:34:15;;;;;;;18.25;9.57;;;;;;;;;;7379851;19;20009;-72
2022/10/09 05:36:40;;;;;;;17.17;7.57;;;;;;;;;;7380287;19;20415;-73
2022/10/09 05:39:05;;;;;;;25.58;11.35;;;;;;;;;;7374936;19;20007;-72
2022/10/09 05:41:31;;;;;;;26.73;12.90;;;;;;;;;;7377244;19;20434;-73
2022/10/09 05:43:59;;;;;;;16.00;9.30;;;;;;;;;;7372903;19;20011;-72
2022/10/09 05:46:24;;;;;;;16.80;8.82;;;;;;;;;;7368107;19;20019;-72
2022/10/09 05:48:53;;;;;;;18.90;8.52;;;;;;;;;;7358270;19;20601;-73
2022/10/09 05:51:20;;;;;;;18.10;9.02;;;;;;;;;;7372907;19;20003;-73
2022/10/09 05:53:45;;;;;;;18.23;8.00;;;;;;;;;;7367234;19;20049;-72
2022/10/09 05:56:15;;;;;;;28.60;11.70;;;;;;;;;;7372515;19;20022;-73
2022/10/09 05:58:41;;;;;;;20.00;11.05;;;;;;;;;;7376107;19;20014;-72
2022/10/09 06:01:07;;;;;;;28.60;11.55;;;;;;;;;;7372308;19;20449;-73
2022/10/09 06:03:33;;;;;;;19.83;9.73;;;;;;;;;;7364333;19;20019;-76
2022/10/09 06:06:02;;;;;;;18.38;9.02;;;;;;;;;;7363076;19;20019;-73
2022/10/09 06:08:28;;;;;;;18.02;9.02;;;;;;;;;;7375042;19;20013;-75
2022/10/09 06:10:53;;;;;;;22.83;8.65;;;;;;;;;;7366037;19;20090;-74
2022/10/09 06:13:18;;;;;;;22.98;8.57;;;;;;;;;;7370739;19;20030;-75
2022/10/09 06:15:53;;;;;;;16.55;8.13;;;;;;;;;;7375523;19;20019;-72
2022/10/09 06:18:18;;;;;;;17.30;7.57;;;;;;;;;;7361855;19;20013;-72
2022/10/09 06:20:57;;;;;;;18.23;8.30;;;;;;;;;;7368302;19;20018;-72
2022/10/09 06:23:22;;;;;;;21.33;8.40;;;;;;;;;;7371781;19;20010;-72
2022/10/09 06:25:51;;;;;;;13.02;6.65;;;;;;;;;;7366722;19;20017;-72
2022/10/09 06:28:16;;;;;;;17.45;6.97;;;;;;;;;;7379735;19;20018;-72
2022/10/09 06:30:41;;;;;;;16.40;6.85;;;;;;;;;;7375497;19;20017;-73
2022/10/09 06:33:06;;;;;;;13.27;6.82;;;;;;;;;;7372594;19;20025;-73
2022/10/09 06:35:35;;;;;;;13.93;6.32;;;;;;;;;;7369718;19;20474;-73
2022/10/09 06:38:00;;;;;;;12.38;5.97;;;;;;;;;;7378640;19;20002;-72
2022/10/09 06:40:25;;;;;;;15.85;7.30;;;;;;;;;;7378743;19;20474;-73
2022/10/09 06:42:50;;;;;;;15.88;7.50;;;;;;;;;;7376254;19;20022;-72
2022/10/09 06:45:16;;;;;;;17.08;7.40;;;;;;;;;;7360482;19;20010;-73
2022/10/09 06:47:41;;;;;;;16.40;6.78;;;;;;;;;;7374192;19;20411;-73
2022/10/09 06:50:07;;;;;;;16.58;7.38;;;;;;;;;;7377829;19;20059;-73
2022/10/09 06:52:32;;;;;;;17.08;7.15;;;;;;;;;;7379421;19;20082;-73
2022/10/09 06:54:57;;;;;;;13.73;6.77;;;;;;;;;;7362637;19;20561;-73
2022/10/09 06:57:22;;;;;;;13.77;6.88;;;;;;;;;;7372344;19;20283;-73
2022/10/09 06:59:49;;;;;;;16.42;7.25;;;;;;;;;;7375502;19;20014;-73
2022/10/09 07:02:14;;;;;;;16.80;6.63;;;;;;;;;;7338473;19;20024;-73
2022/10/09 07:04:39;;;;;;;17.55;7.32;;;;;;;;;;7374679;19;20066;-73
2022/10/09 07:07:04;;;;;;;16.08;5.78;;;;;;;;;;7368624;19;20010;-74
2022/10/09 07:09:30;;;;;;;14.57;6.75;;;;;;;;;;7380511;19;20006;-72
2022/10/09 07:11:55;;;;;;;16.35;9.10;;;;;;;;;;7379301;19;20014;-73
2022/10/09 07:14:20;;;;;;;22.33;11.43;;;;;;;;;;7376307;19;20003;-74
2022/10/09 07:16:46;;;;;;;18.77;10.50;;;;;;;;;;7371995;19;20247;-74
2022/10/09 07:19:12;;;;;;;15.43;7.20;;;;;;;;;;7374174;19;20777;-74
2022/10/09 07:21:39;;;;;;;20.38;7.90;;;;;;;;;;7375266;19;20109;-73
2022/10/09 07:24:04;;;;;;;16.27;9.05;;;;;;;;;;7378461;19;20004;-73
2022/10/09 07:26:31;;;;;;;16.45;8.38;;;;;;;;;;7366838;19;20070;-74
2022/10/09 07:28:57;;;;;;;14.02;6.97;;;;;;;;;;7339412;19;20030;-74
2022/10/09 07:31:22;;;;;;;17.05;5.63;;;;;;;;;;7336387;19;20294;-75
2022/10/09 07:33:48;;;;;;;17.63;6.05;;;;;;;;;;7368236;19;20018;-74
2022/10/09 07:36:13;;;;;;;15.10;4.95;;;;;;;;;;7358177;19;20014;-74
2022/10/09 07:38:38;;;;;;;10.73;3.73;;;;;;;;;;7368988;19;20002;-76
2022/10/09 07:41:08;;;;;;;14.05;5.15;;;;;;;;;;7372395;19;20737;-74
2022/10/09 07:43:33;;;;;;;9.77;3.90;;;;;;;;;;7376434;19;20018;-74
2022/10/09 07:45:59;;;;;;;13.15;3.72;;;;;;;;;;7362761;19;20704;-73
2022/10/09 07:48:24;;;;;;;13.32;3.63;;;;;;;;;;7372282;19;20078;-74
2022/10/09 07:50:50;;;;;;;12.07;3.47;;;;;;;;;;7380018;19;20002;-73
2022/10/09 07:53:15;;;;;;;12.47;3.27;;;;;;;;;;7366515;19;19995;-74
2022/10/09 07:55:45;;;;;;;11.95;3.13;;;;;;;;;;7362395;19;20243;-72
2022/10/09 07:58:10;;;;;;;11.98;3.17;;;;;;;;;;7367008;19;20521;-72
2022/10/09 08:00:35;;;;;;;8.93;3.38;;;;;;;;;;7331598;19;20379;-73
2022/10/09 08:03:00;;;;;;;10.30;2.75;;;;;;;;;;7369665;19;20086;-72
2022/10/09 08:05:25;;;;;;;10.73;3.40;;;;;;;;;;7369617;19;20071;-72
2022/10/09 08:07:50;;;;;;;9.17;3.30;;;;;;;;;;7358384;19;20267;-73
2022/10/09 08:10:16;;;;;;;8.75;3.42;;;;;;;;;;7374370;19;20256;-72
2022/10/09 08:12:41;;;;;;;13.68;3.45;;;;;;;;;;7372122;19;20359;-73
2022/10/09 08:15:06;;;;;;;12.80;2.87;;;;;;;;;;7369712;19;20002;-73
2022/10/09 08:17:31;;;;;;;9.85;3.00;;;;;;;;;;7365197;19;20247;-73
2022/10/09 08:19:57;;;;;;;12.80;3.10;;;;;;;;;;7374513;19;20027;-72
2022/10/09 08:22:22;;;;;;;12.40;3.13;;;;;;;;;;7365627;19;20517;-72
2022/10/09 08:24:47;;;;;;;7.70;3.00;;;;;;;;;;7356773;19;20037;-72
2022/10/09 08:27:12;;;;;;;10.27;2.90;;;;;;;;;;7360244;19;20006;-73
2022/10/09 08:29:37;;;;;;;8.30;2.80;;;;;;;;;;7365385;19;21019;-73
2022/10/09 08:32:03;;;;;;;13.37;2.90;;;;;;;;;;7372189;19;20227;-72
2022/10/09 08:34:28;;;;;;;12.70;3.20;;;;;;;;;;7373422;19;20271;-73
2022/10/09 08:36:53;;;;;;;7.18;2.60;;;;;;;;;;7372187;19;20395;-72
2022/10/09 08:39:18;;;;;;;10.93;3.15;;;;;;;;;;7366617;19;20349;-73
2022/10/09 08:41:48;;;;;;;11.82;2.78;;;;;;;;;;7372699;19;20050;-73
2022/10/09 08:44:23;;;;;;;11.35;3.20;;;;;;;;;;7366085;19;20007;-73
2022/10/09 08:46:51;;;;;;;9.20;2.90;;;;;;;;;;7374084;19;20010;-73
2022/10/09 08:49:25;;;;;;;8.52;2.78;;;;;;;;;;7373027;19;19994;-73
2022/10/09 08:51:51;;;;;;;13.02;3.15;;;;;;;;;;7373516;19;20033;-74
2022/10/09 08:54:28;;;;;;;8.95;2.58;;;;;;;;;;7370595;19;20002;-74
2022/10/09 08:56:54;;;;;;;9.70;2.67;;;;;;;;;;7369954;19;20401;-74
2022/10/09 08:59:19;;;;;;;10.60;2.50;;;;;;;;;;7374349;19;20022;-76
2022/10/09 09:01:48;;;;;;;12.93;2.80;;;;;;;;;;7337487;19;20339;-74
2022/10/09 09:04:25;;;;;;;12.50;2.97;;;;;;;;;;7377599;19;20594;-74
2022/10/09 09:06:50;;;;;;;11.55;3.15;;;;;;;;;;7370120;19;20010;-76
2022/10/09 09:09:25;;;;;;;14.07;2.67;;;;;;;;;;7373432;19;20026;-74
2022/10/09 09:12:02;;;;;;;10.23;2.60;;;;;;;;;;7372856;19;20006;-75
2022/10/09 09:14:36;;;;;;;7.32;2.05;;;;;;;;;;7365381;19;20036;-74
2022/10/09 09:17:30;;;;;;;11.40;2.50;;;;;;;;;;7376504;19;20021;-74
2022/10/09 09:20:04;;;;;;;12.57;3.03;;;;;;;;;;7373943;19;20025;-75
2022/10/09 09:22:30;;;;;;;8.02;2.20;;;;;;;;;;7366666;19;20022;-74
2022/10/09 09:24:56;;;;;;;8.65;2.92;;;;;;;;;;7374376;19;20014;-74
2022/10/09 09:27:26;;;;;;;7.32;2.33;;;;;;;;;;7367215;19;20038;-73
2022/10/09 09:29:57;;;;;;;9.25;2.10;;;;;;;;;;7362113;19;20002;-75
2022/10/09 09:32:26;;;;;;;10.88;2.10;;;;;;;;;;7366540;19;20477;-75
2022/10/09 09:34:55;;;;;;;8.25;2.20;;;;;;;;;;7365519;19;20018;-76
2022/10/09 09:37:22;;;;;;;11.02;2.70;;;;;;;;;;7375446;19;20018;-76
2022/10/09 09:39:47;;;;;;;7.35;2.60;;;;;;;;;;7377080;19;20328;-74
2022/10/09 09:42:13;;;;;;;9.02;1.95;;;;;;;;;;7367680;19;20310;-74
2022/10/09 09:44:42;;;;;;;11.13;2.10;;;;;;;;;;7372534;19;20010;-75
2022/10/09 09:47:16;;;;;;;7.95;1.83;;;;;;;;;;7366473;19;20619;-75
2022/10/09 09:49:52;;;;;;;10.57;1.85;;;;;;;;;;7376602;19;20015;-75
2022/10/09 09:52:18;;;;;;;9.13;2.25;;;;;;;;;;7375265;19;20021;-75
2022/10/09 09:54:46;;;;;;;10.23;2.22;;;;;;;;;;7365821;19;20006;-75
2022/10/09 09:57:11;;;;;;;10.50;2.13;;;;;;;;;;7373737;19;20026;-76
2022/10/09 09:59:41;;;;;;;8.70;2.13;;;;;;;;;;7364040;19;20010;-76
2022/10/09 10:02:10;;;;;;;8.25;1.75;;;;;;;;;;7366335;19;20014;-74
2022/10/09 10:04:35;;;;;;;10.05;2.10;;;;;;;;;;7375264;19;20017;-75
2022/10/09 10:07:01;;;;;;;9.13;1.80;;;;;;;;;;7364017;19;20579;-74
2022/10/09 10:09:26;;;;;;;11.38;2.38;;;;;;;;;;7374281;19;20592;-75
2022/10/09 10:11:54;;;;;;;5.68;2.00;;;;;;;;;;7377990;19;20025;-75
2022/10/09 10:14:19;;;;;;;8.15;2.00;;;;;;;;;;7372750;19;19994;-76
2022/10/09 10:16:47;;;;;;;11.68;2.17;;;;;;;;;;7353337;19;20007;-74
2022/10/09 10:19:25;;;;;;;8.68;1.52;;;;;;;;;;7374175;19;20013;-75
2022/10/09 10:21:59;;;;;;;8.57;1.70;;;;;;;;;;7377883;19;20010;-75
2022/10/09 10:24:37;;;;;;;7.78;1.65;;;;;;;;;;7380996;19;20017;-74
2022/10/09 10:27:05;;;;;;;9.43;2.03;;;;;;;;;;7376838;19;20023;-75
2022/10/09 10:29:34;;;;;;;8.90;1.60;;;;;;;;;;7379123;19;20062;-74
2022/10/09 10:32:06;;;;;;;9.35;1.83;;;;;;;;;;7383249;19;20033;-74
2022/10/09 10:34:36;;;;;;;8.25;1.60;;;;;;;;;;7372057;19;20147;-73
2022/10/09 10:37:16;;;;;;;8.25;1.63;;;;;;;;;;7380852;19;20339;-75
2022/10/09 10:39:56;;;;;;;6.63;1.63;;;;;;;;;;7366868;19;20111;-74
2022/10/09 10:42:23;;;;;;;11.35;1.80;;;;;;;;;;7372043;19;20467;-74
2022/10/09 10:44:55;;;;;;;5.75;1.50;;;;;;;;;;7377620;19;20023;-74
2022/10/09 10:47:23;;;;;;;7.88;1.70;;;;;;;;;;7373637;19;20010;-74
2022/10/09 10:49:48;;;;;;;5.97;1.55;;;;;;;;;;7371644;19;20444;-73
2022/10/09 10:52:24;;;;;;;5.88;1.70;;;;;;;;;;7382882;19;20025;-74
2022/10/09 10:54:55;;;;;;;6.55;1.83;;;;;;;;;;7374442;19;19998;-76
2022/10/09 10:57:20;;;;;;;7.57;1.50;;;;;;;;;;7373434;19;20029;-73
2022/10/09 10:59:49;;;;;;;8.73;2.10;;;;;;;;;;7377744;19;20082;-75
2022/10/09 11:02:34;;;;;;;7.30;2.05;;;;;;;;;;7373213;19;20018;-75
2022/10/09 11:05:00;;;;;;;6.63;1.60;;;;;;;;;;7382286;19;20091;-76
2022/10/09 11:07:42;;;;;;;5.37;1.27;;;;;;;;;;7380765;19;20372;-75
2022/10/09 11:10:19;;;;;;;10.90;1.95;;;;;;;;;;7349737;19;20223;-75
2022/10/09 11:12:50;;;;;;;9.25;1.77;;;;;;;;;;7380973;19;20021;-75
2022/10/09 11:15:36;;;;;;;7.05;1.80;;;;;;;;;;7367576;19;20003;-73
2022/10/09 11:18:01;;;;;;;6.55;1.58;;;;;;;;;;7377767;19;20497;-76
2022/10/09 11:20:45;;;;;;;5.73;1.40;;;;;;;;;;7380415;19;20030;-74
2022/10/09 11:23:10;;;;;;;6.90;1.65;;;;;;;;;;7373838;19;20022;-74
2022/10/09 11:25:43;;;;;;;7.78;1.75;;;;;;;;;;7378802;19;20082;-74
2022/10/09 11:28:21;;;;;;;6.10;1.97;;;;;;;;;;7382468;19;20010;-75
2022/10/09 11:30:49;;;;;;;9.32;2.28;;;;;;;;;;7354571;19;20035;-74
2022/10/09 11:33:23;;;;;;;7.28;1.77;;;;;;;;;;7369946;19;20098;-75
2022/10/09 11:36:00;;;;;;;7.88;1.63;;;;;;;;;;7369445;19;20002;-75
2022/10/09 11:38:28;;;;;;;9.65;1.50;;;;;;;;;;7376743;19;20015;-75
2022/10/09 11:40:54;;;;;;;6.00;1.65;;;;;;;;;;7372892;19;20256;-75
2022/10/09 11:43:35;;;;;;;7.53;1.65;;;;;;;;;;7371878;19;20010;-75
2022/10/09 11:46:03;;;;;;;7.95;1.60;;;;;;;;;;7374824;19;20401;-76
2022/10/09 11:48:29;;;;;;;5.93;1.48;;;;;;;;;;7376227;19;20321;-75
2022/10/09 11:51:04;;;;;;;6.00;1.30;;;;;;;;;;7381090;19;20017;-75
2022/10/09 11:53:33;;;;;;;6.05;1.58;;;;;;;;;;7379280;19;20566;-74
2022/10/09 11:56:06;;;;;;;8.68;1.95;;;;;;;;;;7369581;19;20387;-76
2022/10/09 11:58:32;;;;;;;8.70;1.70;;;;;;;;;;7366531;19;20014;-76
2022/10/09 12:01:12;;;;;;;9.57;1.65;;;;;;;;;;7349719;19;20013;-74
2022/10/09 12:03:38;;;;;;;4.78;1.30;;;;;;;;;;7373229;19;20001;-74
2022/10/09 12:06:06;;;;;;;6.55;1.30;;;;;;;;;;7375163;19;20013;-75
2022/10/09 12:08:31;;;;;;;8.27;1.63;;;;;;;;;;7372108;19;20016;-74
2022/10/09 12:10:58;;;;;;;8.30;1.70;;;;;;;;;;7378068;19;20458;-74
2022/10/09 12:13:29;;;;;;;4.88;1.45;;;;;;;;;;7376369;19;20312;-74
2022/10/09 12:15:56;;;;;;;4.45;1.27;;;;;;;;;;7365090;19;20021;-74
2022/10/09 12:18:27;;;;;;;7.03;1.50;;;;;;;;;;7345380;19;20038;-75
2022/10/09 12:20:54;;;;;;;8.55;1.45;;;;;;;;;;7365632;19;20095;-75
2022/10/09 12:23:21;;;;;;;6.28;1.80;;;;;;;;;;7363810;19;20026;-75
2022/10/09 12:25:46;;;;;;;5.25;1.27;;;;;;;;;;7374614;19;20042;-75
2022/10/09 12:28:17;;;;;;;6.75;1.90;;;;;;;;;;7373371;19;20410;-75
2022/10/09 12:30:45;;;;;;;5.65;1.30;;;;;;;;;;7366279;19;21053;-74
2022/10/09 12:33:13;;;;;;;6.70;1.48;;;;;;;;;;7359227;19;19991;-74
2022/10/09 12:35:40;;;;;;;11.90;1.88;;;;;;;;;;7368859;19;20022;-73
2022/10/09 12:38:23;;;;;;;4.53;1.38;;;;;;;;;;7359602;19;20019;-74
2022/10/09 12:40:49;;;;;;;7.75;1.48;;;;;;;;;;7363287;19;20010;-74
2022/10/09 12:43:16;;;;;;;6.32;1.63;;;;;;;;;;7362638;19;20033;-74
2022/10/09 12:45:42;;;;;;;5.35;1.48;;;;;;;;;;7363804;19;20042;-74
2022/10/09 12:48:09;;;;;;;7.50;1.58;;;;;;;;;;7374357;19;20007;-74
2022/10/09 12:50:34;;;;;;;7.80;1.50;;;;;;;;;;7377415;19;20023;-73
2022/10/09 12:53:01;;;;;;;8.43;1.70;;;;;;;;;;7369878;19;20501;-74
2022/10/09 12:55:26;;;;;;;4.55;1.20;;;;;;;;;;7374159;19;21001;-74
2022/10/09 12:57:53;;;;;;;7.97;1.50;;;;;;;;;;7371818;19;20037;-74
2022/10/09 13:00:18;;;;;;;8.43;1.75;;;;;;;;;;7365233;19;20006;-73
2022/10/09 13:02:43;;;;;;;7.45;1.80;;;;;;;;;;7346346;19;20018;-75
2022/10/09 13:05:09;;;;;;;7.03;1.77;;;;;;;;;;7338541;19;20473;-74
2022/10/09 13:07:34;;;;;;;9.07;1.57;;;;;;;;;;7367874;19;20443;-73
2022/10/09 13:10:04;;;;;;;7.45;1.83;;;;;;;;;;7371646;19;20256;-74
2022/10/09 13:12:30;;;;;;;7.40;1.73;;;;;;;;;;7366371;19;20007;-74
2022/10/09 13:14:57;;;;;;;10.40;1.48;;;;;;;;;;7360547;19;20014;-74
2022/10/09 13:17:38;;;;;;;6.05;1.60;;;;;;;;;;7354110;19;20010;-74
2022/10/09 13:20:13;;;;;;;6.15;1.77;;;;;;;;;;7362836;19;20438;-74
2022/10/09 13:22:38;;;;;;;6.13;1.55;;;;;;;;;;7368416;19;20016;-73
2022/10/09 13:25:04;;;;;;;8.23;2.03;;;;;;;;;;7371348;19;20442;-73
2022/10/09 13:27:33;;;;;;;8.35;1.73;;;;;;;;;;7363796;19;20050;-75
2022/10/09 13:30:00;;;;;;;7.00;1.55;;;;;;;;;;7355304;19;20293;-75
2022/10/09 13:32:25;;;;;;;4.05;1.27;;;;;;;;;;7358589;19;20037;-74
2022/10/09 13:34:53;;;;;;;9.10;1.77;;;;;;;;;;7371204;19;20062;-73
2022/10/09 13:37:22;;;;;;;8.30;1.40;;;;;;;;;;7349337;19;20801;-74
2022/10/09 13:39:48;;;;;;;5.63;1.73;;;;;;;;;;7357976;19;20109;-73
2022/10/09 13:42:15;;;;;;;9.00;1.73;;;;;;;;;;7350657;19;20003;-75
2022/10/09 13:44:40;;;;;;;5.90;1.45;;;;;;;;;;7360994;19;20570;-74
2022/10/09 13:47:05;;;;;;;7.63;1.53;;;;;;;;;;7374674;19;20002;-74
2022/10/09 13:49:30;;;;;;;4.90;1.38;;;;;;;;;;7372928;19;20255;-74
2022/10/09 13:51:56;;;;;;;5.03;1.40;;;;;;;;;;7378606;19;20010;-74
2022/10/09 13:54:21;;;;;;;4.25;1.50;;;;;;;;;;7360006;19;21112;-75
2022/10/09 13:56:46;;;;;;;6.32;1.52;;;;;;;;;;7325159;19;20548;-74
2022/10/09 13:59:11;;;;;;;6.40;1.60;;;;;;;;;;7346444;19;20481;-73
2022/10/09 14:01:36;;;;;;;6.43;1.67;;;;;;;;;;7362552;19;20596;-74
2022/10/09 14:04:02;;;;;;;5.77;1.40;;;;;;;;;;7355511;19;20289;-75
2022/10/09 14:06:27;;;;;;;6.13;1.60;;;;;;;;;;7344537;19;20263;-74
2022/10/09 14:08:52;;;;;;;7.53;1.80;;;;;;;;;;7373800;19;19999;-75
2022/10/09 14:11:17;;;;;;;6.03;1.90;;;;;;;;;;7377230;19;20376;-75
2022/10/09 14:13:43;;;;;;;7.07;1.73;;;;;;;;;;7366637;19;20279;-74
2022/10/09 14:16:09;;;;;;;10.68;1.65;;;;;;;;;;7360863;19;20115;-75
2022/10/09 14:18:35;;;;;;;6.85;1.50;;;;;;;;;;7377134;19;20003;-74
2022/10/09 14:21:06;;;;;;;8.02;2.17;;;;;;;;;;7369965;19;20293;-74
2022/10/09 14:23:31;;;;;;;7.30;2.00;;;;;;;;;;7361744;19;20614;-73
2022/10/09 14:26:00;;;;;;;5.10;1.60;;;;;;;;;;7380254;19;20458;-74
2022/10/09 14:28:25;;;;;;;6.28;1.60;;;;;;;;;;7377598;19;20266;-74
2022/10/09 14:30:50;;;;;;;7.33;1.60;;;;;;;;;;7368234;19;20070;-74
2022/10/09 14:33:16;;;;;;;8.13;2.07;;;;;;;;;;7376481;19;20246;-73
2022/10/09 14:35:41;;;;;;;4.70;1.87;;;;;;;;;;7369229;19;20018;-74
2022/10/09 14:38:06;;;;;;;6.40;1.70;;;;;;;;;;7357794;19;20235;-75